sensor_id;sensor_type;location;lat;lon;timestamp;pressure;altitude;pressure_sealevel;temperature;humidity
38806;BME280;25635;51.146;17.162;2023-01-28T00:01:50;100809.42;;;-0.01;99.61
38806;BME280;25635;51.146;17.162;2023-01-28T00:04:16;100810.52;;;-0.03;99.93
38806;BME280;25635;51.146;17.162;2023-01-28T00:06:43;100812.98;;;-0.06;99.83
38806;BME280;25635;51.146;17.162;2023-01-28T00:09:09;100809.40;;;-0.09;99.93
38806;BME280;25635;51.146;17.162;2023-01-28T00:11:35;100810.91;;;-0.10;99.95
38806;BME280;25635;51.146;17.162;2023-01-28T00:14:01;100814.01;;;-0.09;100.00
38806;BME280;25635;51.146;17.162;2023-01-28T00:16:29;100810.59;;;-0.09;100.00
38806;BME280;25635;51.146;17.162;2023-01-28T00:18:55;100815.78;;;-0.08;99.99
38806;BME280;25635;51.146;17.162;2023-01-28T00:21:21;100810.33;;;-0.07;99.99
38806;BME280;25635;51.146;17.162;2023-01-28T00:23:52;100813.16;;;-0.05;100.00
38806;BME280;25635;51.146;17.162;2023-01-28T00:26:20;100807.91;;;-0.04;100.00
38806;BME280;25635;51.146;17.162;2023-01-28T00:28:46;100804.52;;;-0.03;100.00
38806;BME280;25635;51.146;17.162;2023-01-28T00:33:46;100807.21;;;-0.00;100.00
38806;BME280;25635;51.146;17.162;2023-01-28T00:36:14;100805.37;;;0.01;100.00
38806;BME280;25635;51.146;17.162;2023-01-28T00:38:40;100804.86;;;0.01;100.00
38806;BME280;25635;51.146;17.162;2023-01-28T00:41:10;100806.59;;;0.01;100.00
38806;BME280;25635;51.146;17.162;2023-01-28T00:43:37;100801.73;;;-0.00;100.00
38806;BME280;25635;51.146;17.162;2023-01-28T00:46:04;100798.34;;;-0.03;100.00
38806;BME280;25635;51.146;17.162;2023-01-28T00:48:32;100798.38;;;-0.06;100.00
38806;BME280;25635;51.146;17.162;2023-01-28T00:50:58;100795.02;;;-0.08;100.00
38806;BME280;25635;51.146;17.162;2023-01-28T00:53:24;100793.40;;;-0.10;100.00
38806;BME280;25635;51.146;17.162;2023-01-28T00:55:51;100787.52;;;-0.11;100.00
38806;BME280;25635;51.146;17.162;2023-01-28T00:58:18;100788.02;;;-0.12;100.00
38806;BME280;25635;51.146;17.162;2023-01-28T01:00:44;100790.23;;;-0.12;100.00
38806;BME280;25635;51.146;17.162;2023-01-28T01:03:10;100787.84;;;-0.12;100.00
38806;BME280;25635;51.146;17.162;2023-01-28T01:05:36;100787.70;;;-0.11;100.00
38806;BME280;25635;51.146;17.162;2023-01-28T01:08:03;100792.02;;;-0.11;100.00
38806;BME280;25635;51.146;17.162;2023-01-28T01:10:29;100791.66;;;-0.11;99.96
38806;BME280;25635;51.146;17.162;2023-01-28T01:12:55;100793.58;;;-0.10;100.00
38806;BME280;25635;51.146;17.162;2023-01-28T01:15:22;100800.63;;;-0.10;99.95
38806;BME280;25635;51.146;17.162;2023-01-28T01:17:48;100802.69;;;-0.09;99.94
38806;BME280;25635;51.146;17.162;2023-01-28T01:20:23;100808.55;;;-0.09;99.97
38806;BME280;25635;51.146;17.162;2023-01-28T01:22:50;100811.15;;;-0.08;99.95
38806;BME280;25635;51.146;17.162;2023-01-28T01:25:17;100809.30;;;-0.08;99.70
38806;BME280;25635;51.146;17.162;2023-01-28T01:27:44;100809.51;;;-0.07;99.90
38806;BME280;25635;51.146;17.162;2023-01-28T01:30:14;100811.06;;;-0.06;99.72
38806;BME280;25635;51.146;17.162;2023-01-28T01:32:40;100812.98;;;-0.06;99.77
38806;BME280;25635;51.146;17.162;2023-01-28T01:35:07;100815.40;;;-0.05;99.72
38806;BME280;25635;51.146;17.162;2023-01-28T01:37:35;100820.52;;;-0.06;99.75
38806;BME280;25635;51.146;17.162;2023-01-28T01:40:03;100825.30;;;-0.06;99.71
38806;BME280;25635;51.146;17.162;2023-01-28T01:42:31;100830.68;;;-0.09;99.96
38806;BME280;25635;51.146;17.162;2023-01-28T01:45:04;100834.16;;;-0.11;99.95
38806;BME280;25635;51.146;17.162;2023-01-28T01:50:03;100838.23;;;-0.15;99.98
38806;BME280;25635;51.146;17.162;2023-01-28T01:52:34;100838.27;;;-0.18;100.00
38806;BME280;25635;51.146;17.162;2023-01-28T01:55:03;100840.39;;;-0.21;99.93
38806;BME280;25635;51.146;17.162;2023-01-28T01:57:33;100840.48;;;-0.23;99.91
38806;BME280;25635;51.146;17.162;2023-01-28T02:00:03;100844.20;;;-0.24;100.00
38806;BME280;25635;51.146;17.162;2023-01-28T02:02:35;100841.55;;;-0.26;99.94
38806;BME280;25635;51.146;17.162;2023-01-28T02:05:02;100841.86;;;-0.27;100.00
38806;BME280;25635;51.146;17.162;2023-01-28T02:07:29;100840.56;;;-0.29;99.99
38806;BME280;25635;51.146;17.162;2023-01-28T02:09:55;100839.99;;;-0.30;99.99
38806;BME280;25635;51.146;17.162;2023-01-28T02:12:42;100840.56;;;-0.32;99.97
38806;BME280;25635;51.146;17.162;2023-01-28T02:15:16;100842.69;;;-0.35;99.95
38806;BME280;25635;51.146;17.162;2023-01-28T02:17:44;100846.71;;;-0.36;100.00
38806;BME280;25635;51.146;17.162;2023-01-28T02:20:13;100845.58;;;-0.39;100.00
38806;BME280;25635;51.146;17.162;2023-01-28T02:28:07;100846.61;;;-0.38;99.97
38806;BME280;25635;51.146;17.162;2023-01-28T02:30:39;100845.56;;;-0.39;99.99
38806;BME280;25635;51.146;17.162;2023-01-28T02:33:16;100844.54;;;-0.39;100.00
38806;BME280;25635;51.146;17.162;2023-01-28T02:35:47;100848.20;;;-0.37;100.00
38806;BME280;25635;51.146;17.162;2023-01-28T02:38:25;100851.83;;;-0.37;99.99
38806;BME280;25635;51.146;17.162;2023-01-28T02:41:03;100852.46;;;-0.38;100.00
38806;BME280;25635;51.146;17.162;2023-01-28T02:43:40;100851.42;;;-0.38;99.98
38806;BME280;25635;51.146;17.162;2023-01-28T02:46:17;100852.34;;;-0.41;100.00
38806;BME280;25635;51.146;17.162;2023-01-28T02:49:07;100853.55;;;-0.45;100.00
38806;BME280;25635;51.146;17.162;2023-01-28T02:51:45;100854.84;;;-0.46;100.00
38806;BME280;25635;51.146;17.162;2023-01-28T02:54:42;100853.02;;;-0.48;100.00
38806;BME280;25635;51.146;17.162;2023-01-28T02:57:31;100855.63;;;-0.48;100.00
38806;BME280;25635;51.146;17.162;2023-01-28T03:00:09;100854.53;;;-0.49;100.00
38806;BME280;25635;51.146;17.162;2023-01-28T03:05:30;100852.36;;;-0.48;100.00
38806;BME280;25635;51.146;17.162;2023-01-28T03:07:58;100850.27;;;-0.48;100.00
38806;BME280;25635;51.146;17.162;2023-01-28T03:10:25;100848.73;;;-0.49;100.00
38806;BME280;25635;51.146;17.162;2023-01-28T03:12:55;100855.87;;;-0.49;100.00
38806;BME280;25635;51.146;17.162;2023-01-28T03:15:45;100854.42;;;-0.51;100.00
38806;BME280;25635;51.146;17.162;2023-01-28T03:18:46;100856.30;;;-0.51;100.00
38806;BME280;25635;51.146;17.162;2023-01-28T03:21:37;100855.94;;;-0.52;100.00
38806;BME280;25635;51.146;17.162;2023-01-28T03:24:26;100856.58;;;-0.52;100.00
38806;BME280;25635;51.146;17.162;2023-01-28T03:27:17;100855.18;;;-0.53;100.00
38806;BME280;25635;51.146;17.162;2023-01-28T03:30:09;100855.59;;;-0.55;100.00
38806;BME280;25635;51.146;17.162;2023-01-28T03:32:56;100855.79;;;-0.55;100.00
38806;BME280;25635;51.146;17.162;2023-01-28T03:35:43;100857.49;;;-0.55;100.00
38806;BME280;25635;51.146;17.162;2023-01-28T03:38:28;100856.02;;;-0.57;100.00
38806;BME280;25635;51.146;17.162;2023-01-28T03:41:01;100860.29;;;-0.57;100.00
38806;BME280;25635;51.146;17.162;2023-01-28T03:43:29;100860.05;;;-0.59;100.00
38806;BME280;25635;51.146;17.162;2023-01-28T03:45:55;100853.83;;;-0.60;100.00
38806;BME280;25635;51.146;17.162;2023-01-28T03:48:26;100856.98;;;-0.62;100.00
38806;BME280;25635;51.146;17.162;2023-01-28T03:50:56;100859.62;;;-0.65;100.00
38806;BME280;25635;51.146;17.162;2023-01-28T03:53:25;100860.08;;;-0.66;100.00
38806;BME280;25635;51.146;17.162;2023-01-28T03:55:53;100864.66;;;-0.67;100.00
38806;BME280;25635;51.146;17.162;2023-01-28T03:58:19;100862.24;;;-0.67;100.00
38806;BME280;25635;51.146;17.162;2023-01-28T04:00:46;100863.08;;;-0.67;100.00
38806;BME280;25635;51.146;17.162;2023-01-28T04:03:15;100862.53;;;-0.68;100.00
38806;BME280;25635;51.146;17.162;2023-01-28T04:05:46;100861.16;;;-0.68;100.00
38806;BME280;25635;51.146;17.162;2023-01-28T04:08:22;100861.77;;;-0.66;100.00
38806;BME280;25635;51.146;17.162;2023-01-28T04:10:48;100869.85;;;-0.65;100.00
38806;BME280;25635;51.146;17.162;2023-01-28T04:13:14;100866.59;;;-0.66;100.00
38806;BME280;25635;51.146;17.162;2023-01-28T04:15:41;100871.36;;;-0.66;100.00
38806;BME280;25635;51.146;17.162;2023-01-28T04:18:08;100872.52;;;-0.67;100.00
38806;BME280;25635;51.146;17.162;2023-01-28T04:20:34;100872.50;;;-0.67;100.00
38806;BME280;25635;51.146;17.162;2023-01-28T04:23:01;100871.73;;;-0.69;100.00
38806;BME280;25635;51.146;17.162;2023-01-28T04:25:26;100871.74;;;-0.69;100.00
38806;BME280;25635;51.146;17.162;2023-01-28T04:27:52;100872.41;;;-0.69;100.00
38806;BME280;25635;51.146;17.162;2023-01-28T04:30:19;100871.30;;;-0.71;100.00
38806;BME280;25635;51.146;17.162;2023-01-28T04:32:45;100875.69;;;-0.73;100.00
38806;BME280;25635;51.146;17.162;2023-01-28T04:35:12;100876.91;;;-0.72;100.00
38806;BME280;25635;51.146;17.162;2023-01-28T04:37:40;100884.10;;;-0.72;100.00
38806;BME280;25635;51.146;17.162;2023-01-28T04:40:07;100890.77;;;-0.72;100.00
38806;BME280;25635;51.146;17.162;2023-01-28T04:42:34;100887.33;;;-0.73;100.00
38806;BME280;25635;51.146;17.162;2023-01-28T04:45:00;100888.84;;;-0.73;100.00
38806;BME280;25635;51.146;17.162;2023-01-28T04:47:26;100891.33;;;-0.75;100.00
38806;BME280;25635;51.146;17.162;2023-01-28T04:49:51;100894.17;;;-0.76;100.00
38806;BME280;25635;51.146;17.162;2023-01-28T04:52:17;100898.14;;;-0.75;100.00
38806;BME280;25635;51.146;17.162;2023-01-28T04:54:43;100899.86;;;-0.75;100.00
38806;BME280;25635;51.146;17.162;2023-01-28T04:57:09;100895.54;;;-0.76;100.00
38806;BME280;25635;51.146;17.162;2023-01-28T04:59:35;100901.45;;;-0.77;100.00
38806;BME280;25635;51.146;17.162;2023-01-28T05:02:01;100901.56;;;-0.79;100.00
38806;BME280;25635;51.146;17.162;2023-01-28T05:04:27;100900.61;;;-0.81;100.00
38806;BME280;25635;51.146;17.162;2023-01-28T05:06:53;100902.42;;;-0.82;100.00
38806;BME280;25635;51.146;17.162;2023-01-28T05:09:19;100904.61;;;-0.83;100.00
38806;BME280;25635;51.146;17.162;2023-01-28T05:11:45;100908.55;;;-0.83;100.00
38806;BME280;25635;51.146;17.162;2023-01-28T05:14:11;100909.09;;;-0.82;100.00
38806;BME280;25635;51.146;17.162;2023-01-28T05:16:37;100909.80;;;-0.82;100.00
38806;BME280;25635;51.146;17.162;2023-01-28T05:19:03;100907.95;;;-0.82;100.00
38806;BME280;25635;51.146;17.162;2023-01-28T05:21:29;100911.86;;;-0.82;100.00
38806;BME280;25635;51.146;17.162;2023-01-28T05:23:55;100915.61;;;-0.83;100.00
38806;BME280;25635;51.146;17.162;2023-01-28T05:26:21;100915.20;;;-0.84;100.00
38806;BME280;25635;51.146;17.162;2023-01-28T05:28:47;100919.61;;;-0.85;100.00
38806;BME280;25635;51.146;17.162;2023-01-28T05:31:13;100920.89;;;-0.86;100.00
38806;BME280;25635;51.146;17.162;2023-01-28T05:33:38;100922.23;;;-0.87;99.97
38806;BME280;25635;51.146;17.162;2023-01-28T05:36:05;100921.52;;;-0.88;100.00
38806;BME280;25635;51.146;17.162;2023-01-28T05:38:30;100923.08;;;-0.87;100.00
38806;BME280;25635;51.146;17.162;2023-01-28T05:40:56;100925.86;;;-0.87;100.00
38806;BME280;25635;51.146;17.162;2023-01-28T05:43:22;100925.10;;;-0.88;100.00
38806;BME280;25635;51.146;17.162;2023-01-28T05:45:48;100923.76;;;-0.91;99.96
38806;BME280;25635;51.146;17.162;2023-01-28T05:48:14;100926.48;;;-0.91;99.99
38806;BME280;25635;51.146;17.162;2023-01-28T05:50:40;100927.17;;;-0.91;100.00
38806;BME280;25635;51.146;17.162;2023-01-28T05:53:07;100932.80;;;-0.91;100.00
38806;BME280;25635;51.146;17.162;2023-01-28T05:55:33;100930.71;;;-0.92;100.00
38806;BME280;25635;51.146;17.162;2023-01-28T05:58:00;100927.95;;;-0.92;100.00
38806;BME280;25635;51.146;17.162;2023-01-28T06:00:26;100928.29;;;-0.92;99.99
38806;BME280;25635;51.146;17.162;2023-01-28T06:02:52;100928.11;;;-0.93;100.00
38806;BME280;25635;51.146;17.162;2023-01-28T06:05:19;100933.50;;;-0.94;100.00
38806;BME280;25635;51.146;17.162;2023-01-28T06:07:46;100931.65;;;-0.94;100.00
38806;BME280;25635;51.146;17.162;2023-01-28T06:10:13;100937.17;;;-0.93;99.96
38806;BME280;25635;51.146;17.162;2023-01-28T06:12:39;100938.25;;;-0.92;99.99
38806;BME280;25635;51.146;17.162;2023-01-28T06:15:06;100939.98;;;-0.91;99.98
38806;BME280;25635;51.146;17.162;2023-01-28T06:17:32;100939.39;;;-0.90;100.00
38806;BME280;25635;51.146;17.162;2023-01-28T06:19:58;100941.55;;;-0.88;100.00
38806;BME280;25635;51.146;17.162;2023-01-28T06:22:23;100948.02;;;-0.88;99.99
38806;BME280;25635;51.146;17.162;2023-01-28T06:24:49;100947.10;;;-0.90;99.98
38806;BME280;25635;51.146;17.162;2023-01-28T06:27:15;100943.58;;;-0.92;100.00
38806;BME280;25635;51.146;17.162;2023-01-28T06:29:41;100945.70;;;-0.94;100.00
38806;BME280;25635;51.146;17.162;2023-01-28T06:32:07;100949.86;;;-0.96;99.93
38806;BME280;25635;51.146;17.162;2023-01-28T06:34:33;100954.23;;;-0.97;99.96
38806;BME280;25635;51.146;17.162;2023-01-28T06:36:59;100953.66;;;-0.98;100.00
38806;BME280;25635;51.146;17.162;2023-01-28T06:39:25;100959.30;;;-0.99;99.98
38806;BME280;25635;51.146;17.162;2023-01-28T06:41:53;100961.49;;;-0.99;100.00
38806;BME280;25635;51.146;17.162;2023-01-28T06:44:18;100961.07;;;-0.98;100.00
38806;BME280;25635;51.146;17.162;2023-01-28T06:46:44;100965.80;;;-0.96;100.00
38806;BME280;25635;51.146;17.162;2023-01-28T06:49:10;100969.59;;;-0.95;100.00
38806;BME280;25635;51.146;17.162;2023-01-28T06:51:36;100971.45;;;-0.95;99.86
38806;BME280;25635;51.146;17.162;2023-01-28T06:54:02;100973.42;;;-0.97;99.93
38806;BME280;25635;51.146;17.162;2023-01-28T06:56:28;100975.92;;;-0.98;99.90
38806;BME280;25635;51.146;17.162;2023-01-28T06:58:54;100976.93;;;-0.99;99.80
38806;BME280;25635;51.146;17.162;2023-01-28T07:01:20;100980.30;;;-1.00;99.93
38806;BME280;25635;51.146;17.162;2023-01-28T07:03:46;100976.52;;;-1.00;99.83
38806;BME280;25635;51.146;17.162;2023-01-28T07:06:12;100982.73;;;-0.99;99.98
38806;BME280;25635;51.146;17.162;2023-01-28T07:08:38;100985.66;;;-0.99;100.00
38806;BME280;25635;51.146;17.162;2023-01-28T07:11:06;100993.71;;;-0.98;100.00
38806;BME280;25635;51.146;17.162;2023-01-28T07:13:32;100995.88;;;-1.00;99.76
38806;BME280;25635;51.146;17.162;2023-01-28T07:15:58;101002.34;;;-1.01;99.90
38806;BME280;25635;51.146;17.162;2023-01-28T07:18:24;101004.73;;;-1.00;99.78
38806;BME280;25635;51.146;17.162;2023-01-28T07:20:50;101006.23;;;-1.02;99.86
38806;BME280;25635;51.146;17.162;2023-01-28T07:23:16;101005.77;;;-1.04;99.95
38806;BME280;25635;51.146;17.162;2023-01-28T07:25:42;101013.23;;;-1.05;99.82
38806;BME280;25635;51.146;17.162;2023-01-28T07:28:08;101014.67;;;-1.08;99.67
38806;BME280;25635;51.146;17.162;2023-01-28T07:30:34;101015.58;;;-1.10;99.86
38806;BME280;25635;51.146;17.162;2023-01-28T07:33:01;101016.69;;;-1.12;99.79
38806;BME280;25635;51.146;17.162;2023-01-28T07:35:26;101015.65;;;-1.12;100.00
38806;BME280;25635;51.146;17.162;2023-01-28T07:37:54;101015.98;;;-1.12;100.00
38806;BME280;25635;51.146;17.162;2023-01-28T07:40:20;101014.77;;;-1.12;100.00
38806;BME280;25635;51.146;17.162;2023-01-28T07:42:47;101014.23;;;-1.13;99.89
38806;BME280;25635;51.146;17.162;2023-01-28T07:45:13;101013.58;;;-1.12;99.91
38806;BME280;25635;51.146;17.162;2023-01-28T07:47:39;101012.91;;;-1.12;99.99
38806;BME280;25635;51.146;17.162;2023-01-28T07:50:06;101011.25;;;-1.11;100.00
38806;BME280;25635;51.146;17.162;2023-01-28T07:52:32;101011.48;;;-1.10;99.78
38806;BME280;25635;51.146;17.162;2023-01-28T07:55:04;101010.63;;;-1.10;99.71
38806;BME280;25635;51.146;17.162;2023-01-28T07:57:30;101011.39;;;-1.08;99.82
38806;BME280;25635;51.146;17.162;2023-01-28T07:59:56;101011.33;;;-1.06;99.70
38806;BME280;25635;51.146;17.162;2023-01-28T08:02:22;101014.77;;;-1.06;99.79
38806;BME280;25635;51.146;17.162;2023-01-28T08:04:48;101017.81;;;-1.07;99.89
38806;BME280;25635;51.146;17.162;2023-01-28T08:07:13;101019.04;;;-1.09;99.41
38806;BME280;25635;51.146;17.162;2023-01-28T08:09:39;101019.42;;;-1.11;99.52
38806;BME280;25635;51.146;17.162;2023-01-28T08:12:05;101021.65;;;-1.12;99.21
38806;BME280;25635;51.146;17.162;2023-01-28T08:14:31;101022.73;;;-1.11;99.63
38806;BME280;25635;51.146;17.162;2023-01-28T08:16:57;101019.04;;;-1.09;99.74
38806;BME280;25635;51.146;17.162;2023-01-28T08:19:23;101025.55;;;-1.09;99.78
38806;BME280;25635;51.146;17.162;2023-01-28T08:21:49;101027.56;;;-1.10;99.51
38806;BME280;25635;51.146;17.162;2023-01-28T08:24:16;101028.45;;;-1.09;99.64
38806;BME280;25635;51.146;17.162;2023-01-28T08:26:42;101030.22;;;-1.08;99.49
38806;BME280;25635;51.146;17.162;2023-01-28T08:29:08;101032.55;;;-1.09;99.48
38806;BME280;25635;51.146;17.162;2023-01-28T08:31:34;101032.58;;;-1.09;99.63
38806;BME280;25635;51.146;17.162;2023-01-28T08:34:00;101031.74;;;-1.09;99.74
38806;BME280;25635;51.146;17.162;2023-01-28T08:36:25;101027.84;;;-1.08;99.90
38806;BME280;25635;51.146;17.162;2023-01-28T08:38:52;101033.45;;;-1.09;99.78
38806;BME280;25635;51.146;17.162;2023-01-28T08:41:20;101037.48;;;-1.10;99.89
38806;BME280;25635;51.146;17.162;2023-01-28T08:43:47;101035.54;;;-1.11;99.66
38806;BME280;25635;51.146;17.162;2023-01-28T08:46:13;101035.48;;;-1.12;99.37
38806;BME280;25635;51.146;17.162;2023-01-28T08:48:39;101035.36;;;-1.11;99.93
38806;BME280;25635;51.146;17.162;2023-01-28T08:51:05;101035.39;;;-1.11;99.63
38806;BME280;25635;51.146;17.162;2023-01-28T08:53:31;101037.20;;;-1.09;99.84
38806;BME280;25635;51.146;17.162;2023-01-28T08:55:57;101039.11;;;-1.08;99.71
38806;BME280;25635;51.146;17.162;2023-01-28T08:58:23;101040.02;;;-1.07;99.76
38806;BME280;25635;51.146;17.162;2023-01-28T09:00:49;101040.33;;;-1.08;99.51
38806;BME280;25635;51.146;17.162;2023-01-28T09:03:16;101038.46;;;-1.08;99.60
38806;BME280;25635;51.146;17.162;2023-01-28T09:05:42;101035.88;;;-1.08;99.39
38806;BME280;25635;51.146;17.162;2023-01-28T09:08:12;101033.34;;;-1.08;99.67
38806;BME280;25635;51.146;17.162;2023-01-28T09:10:39;101033.06;;;-1.06;99.72
38806;BME280;25635;51.146;17.162;2023-01-28T09:13:12;101036.54;;;-1.05;99.60
38806;BME280;25635;51.146;17.162;2023-01-28T09:15:39;101041.44;;;-1.03;99.84
38806;BME280;25635;51.146;17.162;2023-01-28T09:18:05;101037.64;;;-1.04;99.48
38806;BME280;25635;51.146;17.162;2023-01-28T09:20:31;101041.86;;;-1.05;99.39
38806;BME280;25635;51.146;17.162;2023-01-28T09:22:58;101051.63;;;-1.05;99.78
38806;BME280;25635;51.146;17.162;2023-01-28T09:25:25;101058.64;;;-1.05;99.93
38806;BME280;25635;51.146;17.162;2023-01-28T09:27:50;101054.45;;;-1.03;99.75
38806;BME280;25635;51.146;17.162;2023-01-28T09:30:17;101057.56;;;-1.02;99.81
38806;BME280;25635;51.146;17.162;2023-01-28T09:32:43;101057.27;;;-1.01;99.74
38806;BME280;25635;51.146;17.162;2023-01-28T09:35:09;101059.17;;;-1.01;99.75
38806;BME280;25635;51.146;17.162;2023-01-28T09:37:36;101064.27;;;-1.02;99.66
38806;BME280;25635;51.146;17.162;2023-01-28T09:40:02;101067.21;;;-1.05;99.49
38806;BME280;25635;51.146;17.162;2023-01-28T09:45:22;101063.95;;;-1.05;99.74
38806;BME280;25635;51.146;17.162;2023-01-28T09:47:52;101064.11;;;-1.05;99.66
38806;BME280;25635;51.146;17.162;2023-01-28T09:50:30;101063.98;;;-1.04;99.73
38806;BME280;25635;51.146;17.162;2023-01-28T09:53:24;101067.74;;;-1.04;99.79
38806;BME280;25635;51.146;17.162;2023-01-28T09:55:55;101070.51;;;-1.04;99.56
38806;BME280;25635;51.146;17.162;2023-01-28T09:58:21;101066.98;;;-1.02;99.53
38806;BME280;25635;51.146;17.162;2023-01-28T10:01:52;101069.05;;;-1.02;99.59
38806;BME280;25635;51.146;17.162;2023-01-28T10:04:05;101063.38;;;-1.02;99.55
38806;BME280;25635;51.146;17.162;2023-01-28T10:17:30;101067.96;;;-1.10;98.78
38806;BME280;25635;51.146;17.162;2023-01-28T10:20:04;101068.15;;;-1.12;98.31
38806;BME280;25635;51.146;17.162;2023-01-28T10:22:35;101069.23;;;-1.11;98.79
38806;BME280;25635;51.146;17.162;2023-01-28T10:25:07;101067.85;;;-1.12;98.65
38806;BME280;25635;51.146;17.162;2023-01-28T10:27:41;101064.84;;;-1.14;98.73
38806;BME280;25635;51.146;17.162;2023-01-28T10:32:47;101065.20;;;-1.13;98.86
38806;BME280;25635;51.146;17.162;2023-01-28T10:35:14;101065.71;;;-1.14;98.63
38806;BME280;25635;51.146;17.162;2023-01-28T10:37:40;101068.92;;;-1.14;98.39
38806;BME280;25635;51.146;17.162;2023-01-28T10:40:12;101063.92;;;-1.15;98.10
38806;BME280;25635;51.146;17.162;2023-01-28T10:42:40;101066.51;;;-1.14;98.10
38806;BME280;25635;51.146;17.162;2023-01-28T10:45:22;101067.42;;;-1.13;98.07
38806;BME280;25635;51.146;17.162;2023-01-28T10:47:53;101065.84;;;-1.11;98.41
38806;BME280;25635;51.146;17.162;2023-01-28T10:50:24;101065.30;;;-1.09;98.14
38806;BME280;25635;51.146;17.162;2023-01-28T10:52:58;101063.13;;;-1.07;98.28
38806;BME280;25635;51.146;17.162;2023-01-28T10:55:28;101066.09;;;-1.06;98.23
38806;BME280;25635;51.146;17.162;2023-01-28T10:57:55;101067.66;;;-1.06;97.91
38806;BME280;25635;51.146;17.162;2023-01-28T11:00:25;101068.40;;;-1.05;97.84
38806;BME280;25635;51.146;17.162;2023-01-28T11:02:52;101064.15;;;-1.04;98.03
38806;BME280;25635;51.146;17.162;2023-01-28T11:05:21;101069.16;;;-1.03;97.97
38806;BME280;25635;51.146;17.162;2023-01-28T11:07:50;101066.20;;;-1.04;97.64
38806;BME280;25635;51.146;17.162;2023-01-28T11:10:34;101070.70;;;-1.03;97.66
38806;BME280;25635;51.146;17.162;2023-01-28T11:13:04;101070.44;;;-1.02;97.07
38806;BME280;25635;51.146;17.162;2023-01-28T11:15:31;101068.79;;;-1.00;97.29
38806;BME280;25635;51.146;17.162;2023-01-28T11:18:01;101069.35;;;-0.99;96.62
38806;BME280;25635;51.146;17.162;2023-01-28T11:20:34;101074.21;;;-0.98;96.89
38806;BME280;25635;51.146;17.162;2023-01-28T11:23:00;101068.48;;;-0.96;97.03
38806;BME280;25635;51.146;17.162;2023-01-28T11:25:32;101064.98;;;-0.94;96.79
38806;BME280;25635;51.146;17.162;2023-01-28T11:28:00;101061.23;;;-0.94;96.36
38806;BME280;25635;51.146;17.162;2023-01-28T11:30:39;101057.73;;;-0.92;97.15
38806;BME280;25635;51.146;17.162;2023-01-28T11:33:20;101060.38;;;-0.88;97.06
38806;BME280;25635;51.146;17.162;2023-01-28T11:39:29;101062.17;;;-0.93;96.38
38806;BME280;25635;51.146;17.162;2023-01-28T11:41:37;101063.60;;;-0.95;96.26
38806;BME280;25635;51.146;17.162;2023-01-28T11:44:18;101066.21;;;-0.97;95.82
38806;BME280;25635;51.146;17.162;2023-01-28T12:01:16;101076.20;;;-1.06;94.60
38806;BME280;25635;51.146;17.162;2023-01-28T12:06:41;101070.04;;;-1.12;94.68
38806;BME280;25635;51.146;17.162;2023-01-28T12:09:54;101066.67;;;-1.11;94.85
38806;BME280;25635;51.146;17.162;2023-01-28T12:13:11;101069.79;;;-1.08;94.90
38806;BME280;25635;51.146;17.162;2023-01-28T12:24:02;101059.15;;;-1.05;94.21
38806;BME280;25635;51.146;17.162;2023-01-28T12:26:49;101061.70;;;-1.05;94.12
38806;BME280;25635;51.146;17.162;2023-01-28T12:43:01;101048.80;;;-1.16;92.43
38806;BME280;25635;51.146;17.162;2023-01-28T12:45:39;101050.17;;;-1.19;91.79
38806;BME280;25635;51.146;17.162;2023-01-28T12:48:14;101054.16;;;-1.25;90.92
38806;BME280;25635;51.146;17.162;2023-01-28T12:50:50;101060.86;;;-1.31;89.66
38806;BME280;25635;51.146;17.162;2023-01-28T12:53:39;101066.21;;;-1.36;89.78
38806;BME280;25635;51.146;17.162;2023-01-28T12:56:11;101070.34;;;-1.39;90.00
38806;BME280;25635;51.146;17.162;2023-01-28T13:01:15;101066.10;;;-1.41;90.20
38806;BME280;25635;51.146;17.162;2023-01-28T13:03:52;101067.64;;;-1.41;90.65
38806;BME280;25635;51.146;17.162;2023-01-28T13:06:32;101068.55;;;-1.44;90.82
38806;BME280;25635;51.146;17.162;2023-01-28T13:09:13;101071.27;;;-1.44;91.03
38806;BME280;25635;51.146;17.162;2023-01-28T13:11:42;101071.57;;;-1.45;90.70
38806;BME280;25635;51.146;17.162;2023-01-28T13:14:09;101069.64;;;-1.46;90.31
38806;BME280;25635;51.146;17.162;2023-01-28T13:16:37;101068.74;;;-1.46;91.19
38806;BME280;25635;51.146;17.162;2023-01-28T13:19:24;101067.59;;;-1.45;90.43
38806;BME280;25635;51.146;17.162;2023-01-28T13:22:23;101068.77;;;-1.46;90.32
38806;BME280;25635;51.146;17.162;2023-01-28T13:24:50;101071.21;;;-1.45;91.04
38806;BME280;25635;51.146;17.162;2023-01-28T13:27:27;101067.92;;;-1.46;90.60
38806;BME280;25635;51.146;17.162;2023-01-28T13:30:31;101068.42;;;-1.46;90.02
38806;BME280;25635;51.146;17.162;2023-01-28T13:33:05;101069.52;;;-1.48;89.69
38806;BME280;25635;51.146;17.162;2023-01-28T13:38:06;101066.36;;;-1.49;89.59
38806;BME280;25635;51.146;17.162;2023-01-28T13:40:33;101067.16;;;-1.50;88.94
38806;BME280;25635;51.146;17.162;2023-01-28T13:43:27;101073.55;;;-1.49;89.58
38806;BME280;25635;51.146;17.162;2023-01-28T13:46:03;101079.09;;;-1.51;88.90
38806;BME280;25635;51.146;17.162;2023-01-28T13:48:43;101082.68;;;-1.51;90.06
38806;BME280;25635;51.146;17.162;2023-01-28T13:51:17;101081.17;;;-1.51;90.06
38806;BME280;25635;51.146;17.162;2023-01-28T13:54:11;101080.08;;;-1.49;90.14
38806;BME280;25635;51.146;17.162;2023-01-28T13:56:55;101076.23;;;-1.47;90.17
38806;BME280;25635;51.146;17.162;2023-01-28T14:00:04;101087.77;;;-1.49;88.35
38806;BME280;25635;51.146;17.162;2023-01-28T14:17:20;101102.23;;;-1.53;89.52
38806;BME280;25635;51.146;17.162;2023-01-28T14:19:51;101105.98;;;-1.53;89.09
38806;BME280;25635;51.146;17.162;2023-01-28T14:22:19;101107.76;;;-1.52;89.42
38806;BME280;25635;51.146;17.162;2023-01-28T14:24:46;101107.25;;;-1.52;89.47